Time;durP1;ratioP1;P1;durP2;ratioP2;P2;SDS_P1;SDS_P2;PMS_P1;PMS_P2;Temp;Humidity;BMP_temperature;BMP_pressure;BME280_temperature;BME280_humidity;BME280_pressure;Samples;Min_cycle;Max_cycle;Signal;HPM_P1;HPM_P2
2021/10/06 00:01:16;;;;;;;14.50;7.00;;;12.80;99.90;;;;;;4425544;32;20131;-69
2021/10/06 00:03:43;;;;;;;13.80;7.33;;;12.80;99.90;;;;;;4425152;32;20537;-69
2021/10/06 00:06:10;;;;;;;15.57;7.20;;;12.70;99.90;;;;;;4425452;32;20151;-68
2021/10/06 00:08:37;;;;;;;21.60;7.43;;;12.70;99.90;;;;;;4423942;32;20119;-68
2021/10/06 00:11:04;;;;;;;14.27;7.37;;;12.70;99.90;;;;;;4425023;32;20127;-68
2021/10/06 00:13:31;;;;;;;17.87;6.90;;;12.70;99.90;;;;;;4425598;32;20120;-69
2021/10/06 00:15:59;;;;;;;13.30;7.03;;;12.70;99.90;;;;;;4425615;32;20227;-69
2021/10/06 00:18:26;;;;;;;16.10;6.90;;;12.70;99.90;;;;;;4425228;32;20446;-68
2021/10/06 00:20:54;;;;;;;18.67;7.37;;;12.60;99.90;;;;;;4423648;32;20139;-68
2021/10/06 00:23:21;;;;;;;18.97;7.23;;;12.60;99.90;;;;;;4425492;32;20136;-68
2021/10/06 00:25:48;;;;;;;15.27;7.10;;;12.60;99.90;;;;;;4427029;32;20445;-68
2021/10/06 00:28:14;;;;;;;17.90;6.93;;;12.60;99.90;;;;;;4428235;32;20457;-68
2021/10/06 00:30:41;;;;;;;13.83;7.27;;;12.60;99.90;;;;;;4428660;32;20453;-68
2021/10/06 00:33:08;;;;;;;15.90;7.10;;;12.60;99.90;;;;;;4428207;32;20173;-68
2021/10/06 00:35:35;;;;;;;17.67;7.03;;;12.60;99.90;;;;;;4428353;32;20472;-68
2021/10/06 00:38:01;;;;;;;16.40;7.13;;;12.50;99.90;;;;;;4428371;32;20159;-68
2021/10/06 00:40:28;;;;;;;17.33;6.90;;;12.50;99.90;;;;;;4427829;32;20123;-68
2021/10/06 00:42:55;;;;;;;16.67;7.80;;;12.50;99.90;;;;;;4428544;32;20338;-68
2021/10/06 00:45:22;;;;;;;10.47;6.80;;;12.50;99.90;;;;;;4426478;32;20141;-69
2021/10/06 00:47:49;;;;;;;13.10;6.53;;;12.50;99.90;;;;;;4427620;32;20172;-68
2021/10/06 00:50:16;;;;;;;14.30;7.37;;;12.50;99.90;;;;;;4426493;32;20192;-68
2021/10/06 00:52:45;;;;;;;15.60;6.50;;;12.50;99.90;;;;;;4428391;32;20127;-68
2021/10/06 00:55:14;;;;;;;14.23;6.93;;;12.50;99.90;;;;;;4426179;32;20504;-67
2021/10/06 00:57:42;;;;;;;13.73;6.80;;;12.50;99.90;;;;;;4427030;32;20231;-68
2021/10/06 01:00:10;;;;;;;15.70;6.87;;;12.50;99.90;;;;;;4427990;32;20123;-68
2021/10/06 01:02:38;;;;;;;15.90;6.77;;;12.60;99.90;;;;;;4427793;32;20176;-68
2021/10/06 01:05:06;;;;;;;13.10;6.93;;;12.60;99.90;;;;;;4427416;32;20169;-68
2021/10/06 01:07:38;;;;;;;13.53;6.80;;;12.60;99.90;;;;;;4428006;32;20131;-67
2021/10/06 01:10:07;;;;;;;13.83;6.80;;;12.70;99.90;;;;;;4426211;32;20187;-68
2021/10/06 01:12:35;;;;;;;12.03;6.10;;;12.70;99.90;;;;;;4426920;32;20477;-68
2021/10/06 01:15:05;;;;;;;12.03;6.70;;;12.70;99.90;;;;;;4427727;32;20168;-68
2021/10/06 01:17:31;;;;;;;15.23;6.90;;;12.80;99.90;;;;;;4425778;32;20177;-67
2021/10/06 01:19:58;;;;;;;14.20;6.80;;;12.80;99.90;;;;;;4427787;32;20127;-68
2021/10/06 01:22:25;;;;;;;13.77;6.83;;;12.80;99.90;;;;;;4427616;32;20457;-68
2021/10/06 01:24:52;;;;;;;13.90;6.43;;;12.90;99.90;;;;;;4426178;32;20210;-68
2021/10/06 01:27:18;;;;;;;16.23;6.87;;;12.90;99.90;;;;;;4427343;32;20147;-68
2021/10/06 01:29:45;;;;;;;13.53;6.97;;;12.90;99.90;;;;;;4427195;32;20127;-68
2021/10/06 01:32:14;;;;;;;14.23;6.57;;;12.90;99.90;;;;;;4427541;32;20131;-69
2021/10/06 01:34:42;;;;;;;14.60;6.80;;;12.90;99.90;;;;;;4427208;32;20162;-68
2021/10/06 01:37:09;;;;;;;15.20;6.50;;;12.90;99.90;;;;;;4424734;32;20143;-69
2021/10/06 01:39:36;;;;;;;11.23;6.13;;;13.00;99.90;;;;;;4427712;32;20128;-69
2021/10/06 01:42:03;;;;;;;16.70;6.97;;;13.00;99.90;;;;;;4426089;32;20131;-69
2021/10/06 01:44:29;;;;;;;13.80;6.40;;;13.00;99.90;;;;;;4427344;32;20190;-69
2021/10/06 01:46:56;;;;;;;16.17;6.73;;;13.00;99.90;;;;;;4425845;32;20123;-69
2021/10/06 01:49:27;;;;;;;14.40;6.93;;;13.00;99.90;;;;;;4427291;32;20161;-69
2021/10/06 01:51:54;;;;;;;23.07;6.90;;;12.90;99.90;;;;;;4427565;32;20120;-69
2021/10/06 01:54:21;;;;;;;15.07;6.97;;;12.90;99.90;;;;;;4427503;32;20223;-69
2021/10/06 01:56:48;;;;;;;16.70;6.60;;;12.90;99.90;;;;;;4425970;32;20199;-69
2021/10/06 01:59:14;;;;;;;18.83;6.73;;;13.00;99.90;;;;;;4426992;32;20518;-69
2021/10/06 02:01:42;;;;;;;13.37;6.67;;;13.00;99.90;;;;;;4425329;32;20496;-68
2021/10/06 02:04:09;;;;;;;17.57;6.70;;;13.00;99.90;;;;;;4427159;32;20509;-68
2021/10/06 02:06:35;;;;;;;14.63;7.10;;;12.90;99.90;;;;;;4427209;32;20172;-68
2021/10/06 02:09:02;;;;;;;13.57;6.67;;;12.90;99.90;;;;;;4425502;32;20176;-68
2021/10/06 02:11:29;;;;;;;13.57;7.30;;;12.90;99.90;;;;;;4425456;32;20510;-68
2021/10/06 02:13:56;;;;;;;12.70;6.70;;;12.90;99.90;;;;;;4426630;32;20506;-68
2021/10/06 02:16:23;;;;;;;13.47;6.90;;;12.90;99.90;;;;;;4426983;32;20516;-69
2021/10/06 02:18:50;;;;;;;16.97;6.87;;;12.90;99.90;;;;;;4426378;32;20187;-68
2021/10/06 02:21:31;;;;;;;13.97;6.90;;;12.90;99.90;;;;;;4426173;32;20158;-68
2021/10/06 02:23:58;;;;;;;16.23;7.33;;;12.90;99.90;;;;;;4426290;32;20124;-68
2021/10/06 02:26:25;;;;;;;12.73;7.10;;;12.90;99.90;;;;;;4426284;32;20235;-69
2021/10/06 02:28:51;;;;;;;12.07;6.80;;;12.90;99.90;;;;;;4425301;32;20159;-69
2021/10/06 02:31:18;;;;;;;16.97;6.90;;;12.90;99.90;;;;;;4424879;32;20120;-69
2021/10/06 02:33:45;;;;;;;15.13;6.90;;;12.90;99.90;;;;;;4424863;32;20511;-69
2021/10/06 02:36:12;;;;;;;16.20;7.03;;;12.90;99.90;;;;;;4426650;32;20170;-69
2021/10/06 02:38:38;;;;;;;10.73;6.40;;;12.90;99.90;;;;;;4425091;32;20180;-69
2021/10/06 02:41:05;;;;;;;13.10;6.67;;;12.90;99.90;;;;;;4426371;32;20172;-69
2021/10/06 02:43:32;;;;;;;14.30;7.20;;;12.90;99.90;;;;;;4426647;32;20416;-69
2021/10/06 02:45:58;;;;;;;12.97;6.60;;;12.90;99.90;;;;;;4424530;32;20125;-69
2021/10/06 02:48:25;;;;;;;14.60;7.17;;;12.90;99.90;;;;;;4424896;32;20434;-68
2021/10/06 02:50:52;;;;;;;12.67;6.87;;;12.90;99.90;;;;;;4424952;32;20169;-69
2021/10/06 02:53:19;;;;;;;15.33;7.27;;;12.80;99.90;;;;;;4419685;32;20464;-69
2021/10/06 02:55:46;;;;;;;12.93;6.87;;;12.80;99.90;;;;;;4412915;32;20220;-67
2021/10/06 02:58:12;;;;;;;11.40;6.93;;;12.80;99.90;;;;;;4409786;32;20135;-68
2021/10/06 03:00:40;;;;;;;14.93;7.10;;;12.70;99.90;;;;;;4409470;32;20446;-69
2021/10/06 03:03:06;;;;;;;13.87;7.03;;;12.70;99.90;;;;;;4410631;32;20197;-69
2021/10/06 03:05:33;;;;;;;12.00;6.50;;;12.70;99.90;;;;;;4411190;32;20396;-69
2021/10/06 03:08:00;;;;;;;13.43;7.20;;;12.70;99.90;;;;;;4410862;32;20461;-69
2021/10/06 03:10:27;;;;;;;16.93;6.50;;;12.70;99.90;;;;;;4410122;32;20176;-69
2021/10/06 03:12:53;;;;;;;14.60;6.73;;;12.70;99.90;;;;;;4411113;32;20181;-69
2021/10/06 03:15:21;;;;;;;15.07;7.10;;;12.70;99.90;;;;;;4409176;32;20130;-69
2021/10/06 03:17:47;;;;;;;15.97;6.77;;;12.70;99.90;;;;;;4409396;32;20127;-69
2021/10/06 03:20:16;;;;;;;14.27;6.53;;;12.70;99.90;;;;;;4409175;32;20176;-68
2021/10/06 03:22:43;;;;;;;17.17;6.50;;;12.70;99.90;;;;;;4410550;32;20147;-68
2021/10/06 03:25:10;;;;;;;14.83;6.87;;;12.80;99.90;;;;;;4415699;32;20139;-68
2021/10/06 03:27:37;;;;;;;14.57;7.03;;;12.70;99.90;;;;;;4410703;32;20151;-68
2021/10/06 03:30:07;;;;;;;17.07;7.93;;;12.70;99.90;;;;;;4410894;32;20387;-68
2021/10/06 03:32:34;;;;;;;17.30;7.00;;;12.60;99.90;;;;;;4410961;32;20123;-68
2021/10/06 03:35:01;;;;;;;15.70;6.80;;;12.60;99.90;;;;;;4410723;32;20189;-68
2021/10/06 03:37:28;;;;;;;13.87;6.17;;;12.60;99.90;;;;;;4409000;32;20169;-68
2021/10/06 03:39:54;;;;;;;18.23;6.80;;;12.60;99.90;;;;;;4408776;32;20139;-69
2021/10/06 03:42:21;;;;;;;20.03;7.47;;;12.70;99.90;;;;;;4410686;32;20179;-69
2021/10/06 03:44:48;;;;;;;15.57;6.70;;;12.70;99.90;;;;;;4410829;32;20124;-69
2021/10/06 03:47:14;;;;;;;9.10;6.17;;;12.70;99.90;;;;;;4410648;32;20204;-68
2021/10/06 03:49:41;;;;;;;12.33;6.33;;;12.70;99.90;;;;;;4410528;32;20399;-68
2021/10/06 03:52:08;;;;;;;14.93;7.00;;;12.70;99.90;;;;;;4409184;32;20176;-68
2021/10/06 03:54:35;;;;;;;12.80;6.50;;;12.80;99.90;;;;;;4410833;32;20338;-69
2021/10/06 03:57:02;;;;;;;15.10;6.80;;;12.70;99.90;;;;;;4410457;32;20528;-69
2021/10/06 03:59:28;;;;;;;11.13;6.50;;;12.70;99.90;;;;;;4408410;32;20124;-68
2021/10/06 04:01:55;;;;;;;11.97;6.63;;;12.70;99.90;;;;;;4410334;32;20180;-68
2021/10/06 04:04:22;;;;;;;15.37;7.23;;;12.70;99.90;;;;;;4410486;32;20162;-69
2021/10/06 04:06:49;;;;;;;14.20;6.83;;;12.70;99.90;;;;;;4410820;32;20181;-68
2021/10/06 04:09:15;;;;;;;12.27;7.03;;;12.70;99.90;;;;;;4409482;32;20585;-69
2021/10/06 04:11:42;;;;;;;14.37;6.60;;;12.70;99.90;;;;;;4409911;32;20180;-68
2021/10/06 04:14:09;;;;;;;11.70;6.40;;;12.70;99.90;;;;;;4410557;32;20177;-69
2021/10/06 04:16:36;;;;;;;16.47;6.73;;;12.70;99.90;;;;;;4408512;32;20127;-68
2021/10/06 04:19:03;;;;;;;12.00;7.00;;;12.70;99.90;;;;;;4410383;32;20192;-68
2021/10/06 04:21:30;;;;;;;14.13;6.23;;;12.70;99.90;;;;;;4409747;32;20331;-68
2021/10/06 04:23:57;;;;;;;17.23;6.90;;;12.70;99.90;;;;;;4408427;32;20438;-68
2021/10/06 04:26:24;;;;;;;14.03;6.43;;;12.70;99.90;;;;;;4410003;32;20147;-69
2021/10/06 04:28:51;;;;;;;13.93;6.37;;;12.70;99.90;;;;;;4409972;32;20157;-68
2021/10/06 04:31:19;;;;;;;12.17;6.07;;;12.70;99.90;;;;;;4408450;32;20172;-68
2021/10/06 04:33:47;;;;;;;17.73;6.53;;;12.70;99.90;;;;;;4408406;32;20169;-68
2021/10/06 04:36:15;;;;;;;13.93;6.10;;;12.70;99.90;;;;;;4408335;32;20177;-68
2021/10/06 04:38:42;;;;;;;14.97;6.87;;;12.60;99.90;;;;;;4408736;32;20446;-68
2021/10/06 04:41:08;;;;;;;14.57;6.57;;;12.60;99.90;;;;;;4410077;32;20127;-68
2021/10/06 04:43:35;;;;;;;10.73;6.27;;;12.60;99.90;;;;;;4409316;32;20127;-68
2021/10/06 04:46:02;;;;;;;13.30;6.47;;;12.60;99.90;;;;;;4409582;32;20213;-68
2021/10/06 04:48:29;;;;;;;12.77;6.53;;;12.60;99.90;;;;;;4409097;32;20176;-69
2021/10/06 04:50:56;;;;;;;15.73;6.90;;;12.50;99.90;;;;;;4409473;32;20410;-69
2021/10/06 04:53:23;;;;;;;10.80;6.23;;;12.50;99.90;;;;;;4410119;32;20128;-68
2021/10/06 04:55:49;;;;;;;10.50;6.30;;;12.50;99.90;;;;;;4409218;32;20155;-68
2021/10/06 04:58:16;;;;;;;11.67;6.60;;;12.50;99.90;;;;;;4409758;32;20399;-68
2021/10/06 05:00:43;;;;;;;11.80;6.63;;;12.40;99.90;;;;;;4408285;32;20237;-69
2021/10/06 05:03:14;;;;;;;15.57;6.83;;;12.40;99.90;;;;;;4408339;32;20124;-69
2021/10/06 05:05:42;;;;;;;13.77;7.10;;;12.40;99.90;;;;;;4412479;32;20269;-68
2021/10/06 05:08:08;;;;;;;14.73;6.93;;;12.40;99.90;;;;;;4412694;32;20171;-68
2021/10/06 05:10:36;;;;;;;12.07;6.63;;;12.30;99.90;;;;;;4410213;32;20127;-68
2021/10/06 05:13:03;;;;;;;13.17;7.00;;;12.20;99.90;;;;;;4412882;32;20155;-68
2021/10/06 05:15:30;;;;;;;15.13;6.87;;;12.10;99.90;;;;;;4410617;32;20450;-68
2021/10/06 05:17:57;;;;;;;15.33;7.20;;;12.10;99.90;;;;;;4412651;32;20193;-69
2021/10/06 05:20:24;;;;;;;14.77;7.23;;;12.00;99.90;;;;;;4412150;32;20195;-69
2021/10/06 05:22:52;;;;;;;15.70;7.37;;;12.00;99.90;;;;;;4410786;32;20155;-69
2021/10/06 05:25:20;;;;;;;14.13;7.07;;;12.00;99.90;;;;;;4412640;32;20146;-69
2021/10/06 05:27:47;;;;;;;19.20;7.80;;;12.00;99.90;;;;;;4410730;32;20155;-69
2021/10/06 05:30:14;;;;;;;16.97;8.10;;;11.90;99.90;;;;;;4410988;32;20176;-70
2021/10/06 05:32:41;;;;;;;14.23;7.43;;;11.90;99.90;;;;;;4412855;32;20143;-69
2021/10/06 05:35:09;;;;;;;15.03;7.83;;;11.80;99.90;;;;;;4410828;32;20131;-69
2021/10/06 05:37:36;;;;;;;14.83;7.40;;;11.80;99.90;;;;;;4409118;32;20143;-68
2021/10/06 05:40:04;;;;;;;13.40;7.43;;;11.70;99.90;;;;;;4412083;32;20166;-69
2021/10/06 05:42:30;;;;;;;15.57;7.93;;;11.70;99.90;;;;;;4410795;32;20499;-69
2021/10/06 05:44:57;;;;;;;14.03;8.00;;;11.70;99.90;;;;;;4410257;32;20119;-68
2021/10/06 05:47:24;;;;;;;13.60;7.60;;;11.60;99.90;;;;;;4412288;32;20189;-69
2021/10/06 05:49:51;;;;;;;16.23;7.60;;;11.60;99.90;;;;;;4410282;32;20131;-69
2021/10/06 05:52:18;;;;;;;13.03;7.30;;;11.70;99.90;;;;;;4410279;32;20123;-69
2021/10/06 05:54:44;;;;;;;17.00;7.47;;;11.70;99.90;;;;;;4411987;32;20181;-69
2021/10/06 05:57:11;;;;;;;16.17;7.53;;;11.70;99.90;;;;;;4418141;32;20204;-69
2021/10/06 05:59:38;;;;;;;15.67;7.13;;;11.70;99.90;;;;;;4413540;32;20181;-68
2021/10/06 06:02:04;;;;;;;13.57;7.33;;;11.70;99.90;;;;;;4410483;32;20170;-68
2021/10/06 06:04:32;;;;;;;14.97;7.33;;;11.70;99.90;;;;;;4412069;32;20119;-69
2021/10/06 06:06:59;;;;;;;15.63;7.60;;;11.80;99.90;;;;;;4411870;32;20205;-68
2021/10/06 06:09:26;;;;;;;20.07;8.00;;;11.80;99.90;;;;;;4411319;32;20197;-69
2021/10/06 06:11:52;;;;;;;13.77;7.60;;;11.80;99.90;;;;;;4411798;32;20212;-68
2021/10/06 06:14:20;;;;;;;15.83;8.57;;;11.80;99.90;;;;;;4411866;32;20132;-67
2021/10/06 06:16:47;;;;;;;17.50;8.50;;;11.80;99.90;;;;;;4411601;32;20127;-67
2021/10/06 06:19:13;;;;;;;16.27;8.20;;;11.80;99.90;;;;;;4410244;32;20180;-68
2021/10/06 06:21:42;;;;;;;14.30;8.07;;;11.70;99.90;;;;;;4411584;32;20124;-69
2021/10/06 06:24:08;;;;;;;15.47;8.57;;;11.70;99.90;;;;;;4411148;32;20139;-69
2021/10/06 06:26:35;;;;;;;14.03;8.40;;;11.70;99.90;;;;;;4411532;32;20204;-68
2021/10/06 06:29:02;;;;;;;14.97;8.40;;;11.70;99.90;;;;;;4411226;32;20119;-67
2021/10/06 06:31:29;;;;;;;17.47;9.20;;;11.70;99.90;;;;;;4410133;32;20135;-68
2021/10/06 06:33:56;;;;;;;14.43;7.70;;;11.70;99.90;;;;;;4409492;32;20208;-68
2021/10/06 06:36:23;;;;;;;13.57;7.70;;;11.70;99.90;;;;;;4409575;32;20188;-68
2021/10/06 06:38:50;;;;;;;17.47;8.50;;;11.80;99.90;;;;;;4418152;32;20158;-67
2021/10/06 06:41:17;;;;;;;16.93;8.37;;;11.70;99.90;;;;;;4411509;32;20132;-68
2021/10/06 06:43:43;;;;;;;13.83;7.67;;;11.80;99.90;;;;;;4411079;32;20231;-67
2021/10/06 06:46:11;;;;;;;14.87;8.10;;;11.80;99.90;;;;;;4410967;32;20146;-68
2021/10/06 06:48:38;;;;;;;16.03;7.93;;;11.90;99.90;;;;;;4410209;32;20172;-68
2021/10/06 06:51:04;;;;;;;15.23;7.90;;;12.00;99.90;;;;;;4410487;32;20135;-68
2021/10/06 06:53:31;;;;;;;12.07;7.47;;;12.10;99.90;;;;;;4415731;32;20210;-68
2021/10/06 06:55:58;;;;;;;13.90;7.80;;;12.20;99.90;;;;;;4409172;32;20163;-68
2021/10/06 06:58:26;;;;;;;13.53;7.57;;;12.40;99.90;;;;;;4415481;32;20131;-68
2021/10/06 07:00:53;;;;;;;13.97;7.33;;;12.50;99.90;;;;;;4422835;32;20143;-68
2021/10/06 07:03:20;;;;;;;15.47;7.93;;;12.60;99.90;;;;;;4418122;32;20171;-68
2021/10/06 07:05:47;;;;;;;15.43;8.07;;;12.70;99.90;;;;;;4415441;32;20403;-68
2021/10/06 07:08:14;;;;;;;11.97;7.40;;;12.70;99.90;;;;;;4426109;32;20143;-68
2021/10/06 07:10:41;;;;;;;13.97;7.53;;;12.80;99.90;;;;;;4425911;32;20127;-68
2021/10/06 07:13:27;;;;;;;14.10;7.53;;;12.90;99.90;;;;;;4424532;32;20165;-68
2021/10/06 07:15:54;;;;;;;14.93;6.70;;;13.00;99.90;;;;;;4420189;32;20143;-67
2021/10/06 07:18:21;;;;;;;14.77;6.70;;;13.00;99.90;;;;;;4417450;32;20380;-67
2021/10/06 07:20:48;;;;;;;16.73;7.10;;;13.00;99.90;;;;;;4410066;32;20492;-67
2021/10/06 07:23:15;;;;;;;13.73;7.43;;;13.10;99.90;;;;;;4409859;32;20469;-67
2021/10/06 07:25:42;;;;;;;14.03;7.70;;;13.30;99.90;;;;;;4408309;32;20119;-68
2021/10/06 07:28:09;;;;;;;11.53;6.87;;;13.20;99.90;;;;;;4409263;32;20178;-68
2021/10/06 07:30:36;;;;;;;12.70;6.93;;;13.30;99.90;;;;;;4410934;32;20442;-68
2021/10/06 07:33:03;;;;;;;12.67;7.00;;;13.20;99.90;;;;;;4410308;32;20501;-68
2021/10/06 07:35:30;;;;;;;14.43;7.10;;;13.30;99.90;;;;;;4408015;32;20181;-68
2021/10/06 07:37:57;;;;;;;13.87;7.13;;;13.30;99.90;;;;;;4409531;32;20155;-68
2021/10/06 07:40:24;;;;;;;12.43;6.80;;;13.30;99.90;;;;;;4410637;32;20452;-68
2021/10/06 07:42:51;;;;;;;14.17;7.40;;;13.40;99.90;;;;;;4409464;32;20438;-68
2021/10/06 07:45:18;;;;;;;14.17;7.30;;;13.40;99.90;;;;;;4408689;32;20438;-68
2021/10/06 07:47:44;;;;;;;11.23;6.90;;;13.50;99.90;;;;;;4411708;32;20150;-68
2021/10/06 07:50:11;;;;;;;13.47;6.70;;;13.50;99.90;;;;;;4417024;32;20419;-68
2021/10/06 07:52:39;;;;;;;13.77;6.83;;;13.60;99.90;;;;;;4410764;32;20139;-68
2021/10/06 07:55:07;;;;;;;11.87;6.83;;;13.60;99.90;;;;;;4410427;32;20455;-68
2021/10/06 07:57:34;;;;;;;10.73;6.43;;;13.70;99.90;;;;;;4408730;32;20243;-67
2021/10/06 08:00:02;;;;;;;13.23;6.80;;;13.90;99.90;;;;;;4410600;32;20134;-67
2021/10/06 08:02:29;;;;;;;12.80;6.57;;;14.20;99.90;;;;;;4409688;32;20131;-68
2021/10/06 08:04:56;;;;;;;13.20;6.50;;;14.60;99.90;;;;;;4408468;32;20124;-68
2021/10/06 08:07:23;;;;;;;15.00;6.60;;;14.90;99.90;;;;;;4409212;32;20198;-69
2021/10/06 08:09:49;;;;;;;11.53;6.90;;;14.90;99.90;;;;;;4410191;32;20124;-68
2021/10/06 08:12:16;;;;;;;11.83;6.40;;;15.20;99.90;;;;;;4408767;32;20184;-68
2021/10/06 08:14:43;;;;;;;18.33;6.50;;;15.40;99.90;;;;;;4409511;32;20167;-67
2021/10/06 08:17:10;;;;;;;10.90;6.23;;;15.30;99.90;;;;;;4410106;32;20860;-68
2021/10/06 08:19:36;;;;;;;11.57;6.77;;;15.20;99.90;;;;;;4408189;32;20124;-68
2021/10/06 08:22:03;;;;;;;11.33;6.40;;;15.10;99.90;;;;;;4408395;32;20557;-70
2021/10/06 08:24:30;;;;;;;14.20;6.60;;;15.10;99.90;;;;;;4412454;32;20495;-68
2021/10/06 08:26:57;;;;;;;12.97;6.17;;;15.00;99.90;;;;;;4414167;32;20201;-68
2021/10/06 08:29:24;;;;;;;14.03;6.60;;;15.10;99.90;;;;;;4408609;32;20169;-68
2021/10/06 08:31:51;;;;;;;14.50;6.50;;;15.00;99.90;;;;;;4410305;32;20131;-68
2021/10/06 08:34:18;;;;;;;15.13;6.20;;;15.00;99.90;;;;;;4408106;32;20189;-69
2021/10/06 08:36:44;;;;;;;10.17;6.60;;;15.10;99.90;;;;;;4409606;32;20193;-68
2021/10/06 08:39:11;;;;;;;12.17;6.83;;;15.20;99.90;;;;;;4410103;32;20124;-69
2021/10/06 08:41:38;;;;;;;12.47;6.63;;;15.40;99.90;;;;;;4409488;32;20184;-68
2021/10/06 08:44:05;;;;;;;9.70;6.20;;;15.70;99.90;;;;;;4409375;32;20132;-69
2021/10/06 08:46:33;;;;;;;13.27;6.43;;;15.80;99.90;;;;;;4411159;32;20172;-69
2021/10/06 08:49:00;;;;;;;10.10;6.00;;;15.90;99.90;;;;;;4412982;32;20170;-69
2021/10/06 08:51:28;;;;;;;9.63;5.80;;;16.00;99.90;;;;;;4411747;32;20174;-68
2021/10/06 08:53:55;;;;;;;11.97;6.10;;;15.80;99.90;;;;;;4413070;32;20136;-68
2021/10/06 08:56:22;;;;;;;14.70;6.10;;;15.70;99.90;;;;;;4419045;32;20195;-68
2021/10/06 08:58:49;;;;;;;11.40;6.30;;;15.80;99.90;;;;;;4412216;32;20577;-67
2021/10/06 09:01:23;;;;;;;10.30;5.90;;;15.90;99.90;;;;;;4411101;32;20151;-68
2021/10/06 09:04:12;;;;;;;9.63;5.40;;;16.00;99.90;;;;;;4411952;32;20145;-68
2021/10/06 09:06:40;;;;;;;13.43;5.93;;;15.90;99.90;;;;;;4411003;32;20134;-68
2021/10/06 09:09:19;;;;;;;12.33;6.03;;;15.90;99.90;;;;;;4412586;32;20454;-67
2021/10/06 09:11:53;;;;;;;11.77;5.53;;;15.80;99.90;;;;;;4411000;32;20147;-67
2021/10/06 09:14:21;;;;;;;16.27;5.60;;;15.70;99.90;;;;;;4412311;32;20181;-68
2021/10/06 09:17:10;;;;;;;11.57;6.00;;;15.70;99.90;;;;;;4411520;32;20155;-68
2021/10/06 09:19:53;;;;;;;9.83;5.37;;;15.70;99.90;;;;;;4411876;32;20132;-67
2021/10/06 09:22:30;;;;;;;12.40;6.10;;;15.70;99.90;;;;;;4410523;32;20149;-67
2021/10/06 09:25:02;;;;;;;10.23;5.93;;;15.80;99.90;;;;;;4412664;32;20120;-67
2021/10/06 09:27:32;;;;;;;9.27;5.80;;;16.00;99.90;;;;;;4410557;32;20503;-67
2021/10/06 09:30:02;;;;;;;12.50;5.23;;;16.30;99.90;;;;;;4410957;32;20121;-65
2021/10/06 09:32:44;;;;;;;11.67;5.33;;;16.40;99.90;;;;;;4421735;32;20549;-65
2021/10/06 09:35:14;;;;;;;10.57;5.50;;;16.30;99.90;;;;;;4426988;32;20161;-64
2021/10/06 09:37:46;;;;;;;11.00;6.00;;;16.20;99.90;;;;;;4425355;32;20139;-65
2021/10/06 09:40:16;;;;;;;11.43;5.57;;;16.20;99.90;;;;;;4420103;32;20135;-64
2021/10/06 09:42:49;;;;;;;9.50;5.23;;;16.30;99.90;;;;;;4410062;32;20124;-64
2021/10/06 09:45:33;;;;;;;11.57;5.20;;;16.70;99.90;;;;;;4410091;32;20124;-64
2021/10/06 09:48:01;;;;;;;13.07;5.50;;;17.40;99.90;;;;;;4409838;32;20467;-64
2021/10/06 09:50:28;;;;;;;9.20;5.13;;;17.70;99.90;;;;;;4409941;32;20235;-65
2021/10/06 09:52:55;;;;;;;14.17;5.47;;;18.40;99.90;;;;;;4411757;32;20512;-65
2021/10/06 09:55:21;;;;;;;9.67;5.30;;;18.90;99.90;;;;;;4409164;32;20131;-64
2021/10/06 09:57:53;;;;;;;11.80;5.77;;;19.10;99.90;;;;;;4408400;32;20216;-65
2021/10/06 10:00:21;;;;;;;9.33;5.60;;;19.20;99.90;;;;;;4409855;32;20124;-65
2021/10/06 10:02:49;;;;;;;10.67;5.10;;;19.40;99.90;;;;;;4408472;32;20124;-65
2021/10/06 10:05:16;;;;;;;9.73;5.30;;;19.90;99.20;;;;;;4411087;32;20150;-65
2021/10/06 10:07:43;;;;;;;12.03;5.40;;;20.20;98.00;;;;;;4409555;32;20119;-65
2021/10/06 10:10:12;;;;;;;8.37;5.00;;;20.80;96.80;;;;;;4409710;32;20535;-65
2021/10/06 10:12:41;;;;;;;8.67;5.70;;;21.10;95.40;;;;;;4411759;32;20646;-65
2021/10/06 10:15:10;;;;;;;12.17;5.40;;;21.10;94.30;;;;;;4409761;32;20206;-64
2021/10/06 10:17:37;;;;;;;9.33;5.60;;;21.20;94.10;;;;;;4409502;32;20454;-65
2021/10/06 10:20:10;;;;;;;11.03;5.77;;;21.30;93.70;;;;;;4396560;32;20154;-64
2021/10/06 10:22:41;;;;;;;8.93;5.87;;;21.60;92.40;;;;;;4409839;32;20438;-65
2021/10/06 10:25:17;;;;;;;9.40;5.63;;;21.40;92.10;;;;;;4411674;32;20158;-65
2021/10/06 10:28:07;;;;;;;11.63;5.97;;;21.40;91.50;;;;;;4411060;32;20200;-65
2021/10/06 10:30:38;;;;;;;15.70;6.37;;;21.20;91.30;;;;;;4410760;32;20186;-66
2021/10/06 10:33:08;;;;;;;10.67;6.43;;;21.00;92.50;;;;;;4409844;32;20120;-65
2021/10/06 10:35:40;;;;;;;11.07;6.13;;;20.60;91.70;;;;;;4412887;32;20159;-66
2021/10/06 10:38:16;;;;;;;11.07;5.80;;;20.00;92.70;;;;;;4417779;32;20139;-66
2021/10/06 10:40:48;;;;;;;10.63;5.77;;;19.90;93.60;;;;;;4426569;32;20165;-65
2021/10/06 10:43:22;;;;;;;9.47;5.83;;;20.00;93.50;;;;;;4424534;32;20158;-66
2021/10/06 10:46:11;;;;;;;10.90;6.43;;;20.50;93.40;;;;;;4424429;32;20120;-66
2021/10/06 10:49:01;;;;;;;11.40;6.10;;;20.80;92.60;;;;;;4424177;32;20217;-65
2021/10/06 10:51:41;;;;;;;10.77;6.03;;;21.10;91.90;;;;;;4424713;32;20173;-65
2021/10/06 10:54:10;;;;;;;9.33;5.97;;;21.00;91.90;;;;;;4425712;32;20192;-65
2021/10/06 10:56:44;;;;;;;13.47;6.50;;;21.00;91.50;;;;;;4425638;32;20447;-65
2021/10/06 10:59:14;;;;;;;14.27;6.63;;;20.60;91.30;;;;;;4424095;32;20122;-63
2021/10/06 11:01:56;;;;;;;11.60;6.27;;;20.40;91.50;;;;;;4424112;32;20127;-64
2021/10/06 11:04:28;;;;;;;12.30;6.27;;;20.70;92.00;;;;;;4424265;32;20126;-64
2021/10/06 11:07:11;;;;;;;9.47;6.00;;;20.90;91.30;;;;;;4419123;32;20231;-65
2021/10/06 11:09:43;;;;;;;13.23;5.93;;;20.60;90.60;;;;;;4411658;32;20199;-65
2021/10/06 11:12:12;;;;;;;12.33;5.87;;;20.10;92.20;;;;;;4408127;32;20192;-65
2021/10/06 11:14:44;;;;;;;12.60;5.67;;;20.40;91.60;;;;;;4409845;32;20124;-67
2021/10/06 11:17:12;;;;;;;9.80;5.60;;;20.30;91.50;;;;;;4416997;32;20252;-68
2021/10/06 11:19:42;;;;;;;9.00;5.40;;;21.00;90.70;;;;;;4418303;32;20269;-65
2021/10/06 11:22:24;;;;;;;12.70;5.30;;;21.60;90.00;;;;;;4421870;32;20131;-65
2021/10/06 11:24:52;;;;;;;12.13;5.67;;;21.80;89.00;;;;;;4425015;32;20135;-65
2021/10/06 11:27:21;;;;;;;12.23;5.73;;;22.10;87.50;;;;;;4423729;32;20139;-65
2021/10/06 11:29:51;;;;;;;10.10;5.50;;;22.80;86.90;;;;;;4424470;32;20156;-65
2021/10/06 11:32:18;;;;;;;10.53;6.50;;;23.80;84.40;;;;;;4413392;32;20193;-65
2021/10/06 11:34:50;;;;;;;12.80;6.87;;;24.00;79.60;;;;;;4423986;32;20216;-66
2021/10/06 11:37:23;;;;;;;14.30;6.83;;;23.80;78.20;;;;;;4421857;32;20225;-66
2021/10/06 11:39:50;;;;;;;15.87;6.60;;;23.50;77.30;;;;;;4417901;32;20133;-66
2021/10/06 11:42:18;;;;;;;15.33;6.90;;;23.40;78.40;;;;;;4413654;32;20135;-66
2021/10/06 11:44:45;;;;;;;11.77;6.63;;;23.70;77.90;;;;;;4421167;32;20166;-66
2021/10/06 11:47:17;;;;;;;14.20;7.00;;;23.80;78.00;;;;;;4413875;32;20215;-64
2021/10/06 11:49:46;;;;;;;12.00;6.27;;;23.40;78.50;;;;;;4415264;32;20483;-64
2021/10/06 11:52:17;;;;;;;11.80;6.47;;;23.60;79.50;;;;;;4419290;32;20204;-65
2021/10/06 11:54:46;;;;;;;14.67;7.10;;;23.70;79.40;;;;;;4423354;32;20127;-66
2021/10/06 11:57:13;;;;;;;11.10;7.00;;;23.80;78.80;;;;;;4423261;32;20155;-65
2021/10/06 11:59:45;;;;;;;15.23;7.87;;;24.00;78.10;;;;;;4425505;32;20153;-66
2021/10/06 12:02:14;;;;;;;10.90;6.73;;;23.80;77.40;;;;;;4425224;32;20500;-65
2021/10/06 12:04:54;;;;;;;11.80;7.13;;;23.60;78.40;;;;;;4423190;32;20123;-65
2021/10/06 12:07:29;;;;;;;12.90;6.83;;;23.00;78.80;;;;;;4423121;32;20154;-65
2021/10/06 12:10:01;;;;;;;11.10;6.40;;;22.60;81.90;;;;;;4425446;32;20123;-65
2021/10/06 12:12:33;;;;;;;14.70;7.47;;;22.80;81.10;;;;;;4418682;32;20446;-65
2021/10/06 12:15:02;;;;;;;16.47;7.10;;;22.80;80.40;;;;;;4408186;32;20150;-65
2021/10/06 12:17:37;;;;;;;11.83;7.17;;;22.30;80.50;;;;;;4409870;32;20462;-64
2021/10/06 12:20:27;;;;;;;14.70;7.10;;;21.90;81.80;;;;;;4409964;32;20122;-65
2021/10/06 12:22:54;;;;;;;11.73;6.07;;;21.80;82.30;;;;;;4411367;32;20554;-65
2021/10/06 12:25:23;;;;;;;12.57;6.13;;;22.00;83.20;;;;;;4411159;32;20202;-65
2021/10/06 12:28:06;;;;;;;10.87;6.43;;;21.90;81.80;;;;;;4412688;32;20165;-65
2021/10/06 12:30:35;;;;;;;13.13;5.87;;;21.60;83.00;;;;;;4411430;32;20127;-64
2021/10/06 12:33:06;;;;;;;14.57;6.20;;;21.10;84.50;;;;;;4412977;32;20128;-64
2021/10/06 12:35:50;;;;;;;11.80;6.27;;;21.00;84.70;;;;;;4410409;32;20174;-65
2021/10/06 12:38:20;;;;;;;13.07;6.50;;;21.00;85.10;;;;;;4410456;32;20214;-65
2021/10/06 12:40:50;;;;;;;12.27;6.33;;;21.10;85.20;;;;;;4413111;32;20171;-65
2021/10/06 12:43:18;;;;;;;11.47;6.30;;;20.90;85.40;;;;;;4416584;32;20150;-65
2021/10/06 12:46:05;;;;;;;12.37;6.23;;;20.80;85.80;;;;;;4425462;32;20170;-64